createdAt,value
2019-02-05T00:00:45.270Z,45.03
2019-02-05T00:03:15.481Z,45.12
2019-02-05T00:05:43.909Z,45.22
2019-02-05T00:08:12.289Z,44.87
2019-02-05T00:10:40.950Z,45.14
2019-02-05T00:13:09.349Z,44.98
2019-02-05T00:15:38.009Z,44.97
2019-02-05T00:18:06.459Z,44.76
2019-02-05T00:20:34.845Z,44.85
2019-02-05T00:23:03.218Z,44.57
2019-02-05T00:25:31.611Z,44.82
2019-02-05T00:27:59.985Z,44.41
2019-02-05T00:30:28.643Z,44.53
2019-02-05T00:32:57.092Z,44.89
2019-02-05T00:35:25.477Z,44.25
2019-02-05T00:37:53.918Z,44.81
2019-02-05T00:40:22.382Z,44.94
2019-02-05T00:42:50.755Z,44.54
2019-02-05T00:45:20.350Z,44.61
2019-02-05T00:47:48.730Z,44.45
2019-02-05T00:50:18.558Z,45.03
2019-02-05T00:52:47.008Z,44.75
2019-02-05T00:55:17.034Z,44.72
2019-02-05T00:57:45.409Z,44.52
2019-02-05T01:00:26.074Z,44.61
2019-02-05T01:02:54.515Z,44.71
2019-02-05T01:05:23.348Z,44.99
2019-02-05T01:07:51.868Z,44.59
2019-02-05T01:10:21.769Z,44.47
2019-02-05T01:12:50.338Z,44.96
2019-02-05T01:15:20.316Z,44.81
2019-02-05T01:17:48.905Z,44.90
2019-02-05T01:20:18.712Z,45.11
2019-02-05T01:22:47.668Z,44.85
2019-02-05T01:25:20.203Z,44.67
2019-02-05T01:27:49.114Z,44.91
2019-02-05T01:30:20.349Z,44.66
2019-02-05T01:32:49.004Z,44.78
2019-02-05T01:35:17.449Z,44.60
2019-02-05T01:37:45.821Z,44.53
2019-02-05T01:40:22.105Z,44.54
2019-02-05T01:42:50.539Z,44.66
2019-02-05T01:45:20.426Z,44.81
2019-02-05T01:47:49.119Z,44.50
2019-02-05T01:50:23.102Z,44.80
2019-02-05T01:52:51.564Z,44.78
2019-02-05T01:55:20.321Z,45.05
2019-02-05T01:57:49.306Z,45.05
2019-02-05T02:00:23.170Z,44.29
2019-02-05T02:02:51.627Z,44.85
2019-02-05T02:05:20.326Z,44.62
2019-02-05T02:07:49.387Z,44.63
2019-02-05T02:10:21.174Z,44.56
2019-02-05T02:12:49.551Z,44.38
2019-02-05T02:15:18.413Z,43.94
2019-02-05T02:17:46.902Z,44.26
2019-02-05T02:20:17.586Z,44.68
2019-02-05T02:22:46.205Z,44.53
2019-02-05T02:25:15.189Z,44.28
2019-02-05T02:27:43.639Z,44.50
2019-02-05T02:30:21.191Z,44.61
2019-02-05T02:32:49.559Z,44.50
2019-02-05T02:35:17.926Z,44.89
2019-02-05T02:37:46.445Z,44.75
2019-02-05T02:40:14.811Z,44.69
2019-02-05T02:42:43.188Z,44.65
2019-02-05T02:45:13.904Z,44.76
2019-02-05T02:47:42.638Z,44.90
2019-02-05T02:50:21.620Z,44.25
2019-02-05T02:52:51.057Z,44.64
2019-02-05T02:55:19.882Z,45.03
2019-02-05T02:57:48.391Z,44.64
2019-02-05T03:00:18.911Z,44.94
2019-02-05T03:02:47.457Z,44.43
2019-02-05T03:05:18.288Z,44.82
2019-02-05T03:07:47.292Z,44.86
2019-02-05T03:10:24.491Z,44.99
2019-02-05T03:12:53.120Z,44.81
2019-02-05T03:15:21.842Z,44.98
2019-02-05T03:17:50.225Z,44.63
2019-02-05T03:20:18.858Z,43.93
2019-02-05T03:22:49.843Z,44.10
2019-02-05T03:25:20.901Z,44.92
2019-02-05T03:27:53.537Z,43.97
2019-02-05T03:30:25.264Z,44.05
2019-02-05T03:32:55.638Z,44.09
2019-02-05T03:35:24.329Z,44.56
2019-02-05T03:37:52.906Z,44.63
2019-02-05T03:40:30.455Z,44.84
2019-02-05T03:42:59.317Z,44.74
2019-02-05T03:45:30.238Z,44.69
2019-02-05T03:48:01.666Z,44.45
2019-02-05T03:50:31.479Z,44.41
2019-02-05T03:53:15.331Z,44.97
2019-02-05T03:55:49.798Z,44.80
2019-02-05T03:58:29.952Z,44.31
2019-02-05T04:01:07.383Z,44.80
2019-02-05T04:03:47.936Z,44.79
2019-02-05T04:06:22.122Z,44.82
2019-02-05T04:08:59.043Z,44.72
2019-02-05T04:11:53.391Z,44.92
2019-02-05T04:14:39.607Z,44.35
2019-02-05T04:17:26.798Z,45.13
2019-02-05T04:20:20.666Z,44.95
2019-02-05T04:22:52.090Z,44.29
2019-02-05T04:25:44.480Z,45.36
2019-02-05T04:28:27.950Z,45.18
2019-02-05T04:31:02.544Z,45.67
2019-02-05T04:33:49.136Z,46.20
2019-02-05T04:36:32.486Z,46.14
2019-02-05T04:39:09.982Z,45.96
2019-02-05T04:41:41.410Z,46.22
2019-02-05T04:44:24.557Z,45.80
2019-02-05T04:47:07.568Z,45.92
2019-02-05T04:49:59.947Z,46.44
2019-02-05T04:52:40.189Z,46.35
2019-02-05T04:55:38.806Z,46.42
2019-02-05T04:58:31.652Z,45.95
2019-02-05T05:01:30.139Z,45.89
2019-02-05T05:04:18.134Z,45.64
2019-02-05T05:07:12.335Z,46.14
2019-02-05T05:09:55.922Z,45.83
2019-02-05T05:12:25.315Z,46.49
2019-02-05T05:14:53.745Z,45.51
2019-02-05T05:17:22.115Z,46.06
2019-02-05T05:19:51.222Z,46.31
2019-02-05T05:22:19.937Z,46.11
2019-02-05T05:24:48.564Z,46.39
2019-02-05T05:27:17.675Z,46.48
2019-02-05T05:29:46.500Z,46.10
2019-02-05T05:32:15.238Z,46.52
2019-02-05T05:34:43.647Z,45.76
2019-02-05T05:37:10.841Z,46.49
2019-02-05T05:39:39.228Z,46.36
2019-02-05T05:42:07.605Z,46.24
2019-02-05T05:44:35.986Z,46.55
2019-02-05T05:47:05.201Z,46.25
2019-02-05T05:49:33.582Z,46.28
2019-02-05T05:52:01.951Z,46.52
2019-02-05T05:54:30.328Z,46.34
2019-02-05T05:56:58.701Z,46.44
2019-02-05T05:59:27.083Z,46.26
2019-02-05T06:01:55.450Z,46.25
2019-02-05T06:04:24.110Z,46.36
2019-02-05T06:06:52.488Z,46.28
2019-02-05T06:09:21.341Z,45.87
2019-02-05T06:11:51.336Z,46.29
2019-02-05T06:14:19.707Z,45.93
2019-02-05T06:16:48.075Z,46.24
2019-02-05T06:19:16.452Z,46.48
2019-02-05T06:21:45.115Z,46.11
2019-02-05T06:24:13.494Z,46.19
2019-02-05T06:26:41.903Z,46.19
2019-02-05T06:29:10.269Z,46.20
2019-02-05T06:31:38.720Z,46.00
2019-02-05T06:34:07.085Z,46.48
2019-02-05T06:36:35.477Z,45.93
2019-02-05T06:39:07.038Z,46.37
2019-02-05T06:41:35.487Z,46.33
2019-02-05T06:44:04.113Z,46.28
2019-02-05T06:46:32.496Z,46.21
2019-02-05T06:49:00.873Z,46.22
2019-02-05T06:51:29.274Z,45.48
2019-02-05T06:53:57.640Z,46.41
2019-02-05T06:56:26.037Z,46.01
2019-02-05T06:58:54.405Z,46.01
2019-02-05T07:01:22.790Z,45.72
2019-02-05T07:03:51.682Z,45.95
2019-02-05T07:06:20.056Z,45.35
2019-02-05T07:08:48.433Z,45.38
2019-02-05T07:11:16.807Z,46.00
2019-02-05T07:13:45.179Z,45.08
2019-02-05T07:16:13.565Z,45.09
2019-02-05T07:18:42.013Z,45.17
2019-02-05T07:21:10.398Z,45.38
2019-02-05T07:23:38.765Z,45.30
2019-02-05T07:26:07.154Z,45.31
2019-02-05T07:28:35.538Z,45.56
2019-02-05T07:31:04.494Z,45.51
2019-02-05T07:33:32.871Z,46.27
2019-02-05T07:36:01.251Z,46.04
2019-02-05T07:38:29.643Z,46.09
2019-02-05T07:40:58.013Z,47.07
2019-02-05T07:43:26.415Z,46.99
2019-02-05T07:45:54.787Z,46.64
2019-02-05T07:48:23.170Z,47.39
2019-02-05T07:50:52.119Z,46.73
2019-02-05T07:53:20.509Z,46.30
2019-02-05T07:55:48.889Z,46.60
2019-02-05T07:58:17.291Z,46.76
2019-02-05T08:00:45.736Z,46.87
2019-02-05T08:03:14.118Z,45.80
2019-02-05T08:05:42.489Z,46.00
2019-02-05T08:08:11.587Z,45.56
2019-02-05T08:10:39.964Z,45.90
2019-02-05T08:13:08.591Z,45.76
2019-02-05T08:15:36.968Z,46.58
2019-02-05T08:18:05.961Z,46.18
2019-02-05T08:20:34.334Z,45.55
2019-02-05T08:23:02.710Z,45.56
2019-02-05T08:25:31.082Z,45.42
2019-02-05T08:27:59.845Z,45.32
2019-02-05T08:30:30.964Z,45.76
2019-02-05T08:32:59.352Z,46.43
2019-02-05T08:35:27.736Z,46.51
2019-02-05T08:37:56.129Z,46.36
2019-02-05T08:40:24.848Z,46.00
2019-02-05T08:42:53.403Z,45.96
2019-02-05T08:45:28.620Z,46.59
2019-02-05T08:47:57.002Z,46.47
2019-02-05T08:50:27.885Z,46.80
2019-02-05T08:52:56.350Z,45.93
2019-02-05T08:55:24.718Z,46.57
2019-02-05T08:57:58.814Z,46.66
2019-02-05T09:00:38.862Z,46.64
2019-02-05T09:03:09.378Z,46.50
2019-02-05T09:05:37.891Z,46.45
2019-02-05T09:08:06.449Z,46.64
2019-02-05T09:10:37.158Z,46.85
2019-02-05T09:13:05.877Z,46.54
2019-02-05T09:15:34.285Z,46.67
2019-02-05T09:18:02.833Z,46.76
2019-02-05T09:20:31.222Z,47.21
2019-02-05T09:22:59.603Z,46.75
2019-02-05T09:25:28.019Z,46.64
2019-02-05T09:27:56.397Z,46.75
2019-02-05T09:30:32.918Z,46.80
2019-02-05T09:33:04.231Z,46.96
2019-02-05T09:35:32.616Z,46.80
2019-02-05T09:38:01.003Z,46.25
2019-02-05T09:40:31.540Z,46.54
2019-02-05T09:43:00.060Z,46.65
2019-02-05T09:45:30.250Z,46.73
2019-02-05T09:47:58.960Z,47.10
2019-02-05T09:50:30.684Z,46.96
2019-02-05T09:52:57.452Z,46.50
2019-02-05T09:55:25.845Z,46.86
2019-02-05T09:57:54.226Z,45.61
2019-02-05T10:00:31.706Z,46.50
2019-02-05T10:03:00.455Z,46.54
2019-02-05T10:05:33.884Z,46.99
2019-02-05T10:08:02.326Z,46.97
2019-02-05T10:10:31.054Z,46.37
2019-02-05T10:12:59.432Z,46.92
2019-02-05T10:15:36.078Z,46.74
2019-02-05T10:18:05.799Z,46.93
2019-02-05T10:20:34.178Z,45.70
2019-02-05T10:23:03.498Z,45.41
2019-02-05T10:25:32.146Z,46.64
2019-02-05T10:28:00.518Z,46.94
2019-02-05T10:30:34.112Z,46.29
2019-02-05T10:33:02.930Z,46.92
2019-02-05T10:35:31.380Z,47.23
2019-02-05T10:38:00.105Z,47.30
2019-02-05T10:40:28.564Z,46.66
2019-02-05T10:42:57.175Z,47.29
2019-02-05T10:45:26.806Z,47.24
2019-02-05T10:47:55.449Z,47.22
2019-02-05T10:50:24.516Z,47.45
2019-02-05T10:52:53.625Z,47.61
2019-02-05T10:55:23.048Z,48.61
2019-02-05T10:57:53.494Z,48.74
2019-02-05T11:00:29.796Z,48.69
2019-02-05T11:03:00.910Z,48.56
2019-02-05T11:05:30.321Z,48.33
2019-02-05T11:07:59.034Z,47.39
2019-02-05T11:10:27.494Z,47.37
2019-02-05T11:12:55.869Z,47.70
2019-02-05T11:15:32.884Z,47.78
2019-02-05T11:18:02.882Z,47.91
2019-02-05T11:20:31.810Z,48.05
2019-02-05T11:23:00.351Z,48.03
2019-02-05T11:25:29.220Z,47.78
2019-02-05T11:27:57.682Z,47.56
2019-02-05T11:30:34.732Z,47.33
2019-02-05T11:33:03.098Z,46.89
2019-02-05T11:35:31.759Z,46.57
2019-02-05T11:38:00.165Z,46.28
2019-02-05T11:40:30.940Z,46.32
2019-02-05T11:42:59.524Z,46.11
2019-02-05T11:45:28.244Z,45.95
2019-02-05T11:47:58.672Z,45.88
2019-02-05T11:50:27.065Z,46.01
2019-02-05T11:52:55.929Z,45.91
2019-02-05T11:55:32.728Z,46.00
2019-02-05T11:58:01.145Z,45.90
2019-02-05T12:00:32.997Z,46.13
2019-02-05T12:03:01.688Z,46.01
2019-02-05T12:05:30.092Z,46.04
2019-02-05T12:07:58.867Z,46.21
2019-02-05T12:10:27.262Z,46.08
2019-02-05T12:12:55.668Z,46.02
2019-02-05T12:15:24.185Z,45.61
2019-02-05T12:17:52.585Z,45.87
2019-02-05T12:20:21.299Z,45.64
2019-02-05T12:22:50.364Z,45.87
2019-02-05T12:25:23.813Z,45.85
2019-02-05T12:27:52.488Z,45.75
2019-02-05T12:30:23.916Z,45.71
2019-02-05T12:32:52.310Z,45.90
2019-02-05T12:35:20.693Z,45.58
2019-02-05T12:37:49.159Z,45.81
2019-02-05T12:40:18.979Z,45.81
2019-02-05T12:42:47.560Z,45.58
2019-02-05T12:45:21.459Z,45.86
2019-02-05T12:47:49.854Z,45.43
2019-02-05T12:50:20.922Z,45.71
2019-02-05T12:52:49.460Z,45.67
2019-02-05T12:55:18.042Z,45.51
2019-02-05T12:57:46.532Z,44.13
2019-02-05T13:00:18.307Z,43.94
2019-02-05T13:02:46.835Z,44.76
2019-02-05T13:05:15.546Z,44.23
2019-02-05T13:07:44.014Z,44.36
2019-02-05T13:10:21.345Z,44.00
2019-02-05T13:12:49.897Z,44.61
2019-02-05T13:15:18.285Z,44.88
2019-02-05T13:17:46.699Z,45.30
2019-02-05T13:20:20.839Z,45.35
2019-02-05T13:22:49.301Z,45.44
2019-02-05T13:25:23.649Z,45.25
2019-02-05T13:27:52.194Z,45.42
2019-02-05T13:30:23.052Z,45.55
2019-02-05T13:32:51.465Z,45.27
2019-02-05T13:35:21.215Z,45.75
2019-02-05T13:37:50.050Z,45.56
2019-02-05T13:40:20.918Z,45.50
2019-02-05T13:42:49.325Z,45.31
2019-02-05T13:45:20.715Z,45.33
2019-02-05T13:47:49.222Z,45.32
2019-02-05T13:50:32.119Z,45.46
2019-02-05T13:52:50.803Z,45.28
2019-02-05T13:55:30.101Z,45.31
2019-02-05T13:57:58.939Z,45.18
2019-02-05T14:00:32.668Z,45.09
2019-02-05T14:03:01.224Z,45.25
2019-02-05T14:05:29.794Z,45.14
2019-02-05T14:07:58.239Z,45.24
2019-02-05T14:10:37.958Z,45.21
2019-02-05T14:13:06.883Z,45.26
2019-02-05T14:15:37.768Z,44.80
2019-02-05T14:18:07.275Z,44.99
2019-02-05T14:20:35.667Z,44.78
2019-02-05T14:23:04.234Z,44.96
2019-02-05T14:25:32.634Z,45.21
2019-02-05T14:28:01.009Z,44.78
2019-02-05T14:30:34.711Z,44.86
2019-02-05T14:33:03.583Z,44.91
2019-02-05T14:35:32.244Z,44.89
2019-02-05T14:38:00.941Z,44.57
2019-02-05T14:40:29.715Z,44.72
2019-02-05T14:42:58.494Z,44.75
2019-02-05T14:45:26.976Z,44.74
2019-02-05T14:47:55.576Z,44.69
2019-02-05T14:50:26.479Z,44.60
2019-02-05T14:52:56.214Z,44.37
2019-02-05T14:55:25.748Z,44.78
2019-02-05T14:57:54.454Z,44.74
2019-02-05T15:00:31.644Z,44.59
2019-02-05T15:03:02.071Z,44.42
2019-02-05T15:05:30.796Z,44.60
2019-02-05T15:07:59.218Z,44.37
2019-02-05T15:10:27.769Z,44.48
2019-02-05T15:12:56.353Z,44.51
2019-02-05T15:15:28.347Z,44.45
2019-02-05T15:17:57.409Z,44.48
2019-02-05T15:20:34.157Z,44.26
2019-02-05T15:23:02.602Z,44.52
2019-02-05T15:25:31.026Z,44.41
2019-02-05T15:27:59.679Z,44.50
2019-02-05T15:30:31.102Z,44.41
2019-02-05T15:33:04.103Z,43.70
2019-02-05T15:35:32.486Z,44.39
2019-02-05T15:38:00.948Z,44.55
2019-02-05T15:40:29.516Z,44.60
2019-02-05T15:42:57.921Z,44.57
2019-02-05T15:45:26.575Z,44.67
2019-02-05T15:47:55.948Z,43.83
2019-02-05T15:50:24.357Z,44.29
2019-02-05T15:52:52.776Z,44.43
2019-02-05T15:55:21.260Z,44.64
2019-02-05T15:57:49.635Z,44.61
2019-02-05T16:00:23.550Z,43.63
2019-02-05T16:02:52.038Z,44.06
2019-02-05T16:05:20.448Z,44.36
2019-02-05T16:07:48.856Z,44.12
2019-02-05T16:10:23.155Z,44.52
2019-02-05T16:12:51.634Z,44.48
2019-02-05T16:15:20.166Z,44.65
2019-02-05T16:17:48.808Z,44.54
2019-02-05T16:20:18.449Z,44.34
2019-02-05T16:22:47.098Z,44.40
2019-02-05T16:25:15.827Z,44.62
2019-02-05T16:27:44.409Z,44.09
2019-02-05T16:30:27.193Z,44.39
2019-02-05T16:32:56.291Z,44.54
2019-02-05T16:35:24.732Z,44.60
2019-02-05T16:37:54.562Z,44.65
2019-02-05T16:40:34.780Z,44.85
2019-02-05T16:43:03.158Z,44.62
2019-02-05T16:45:32.212Z,44.81
2019-02-05T16:48:00.605Z,44.95
2019-02-05T16:50:37.557Z,44.29
2019-02-05T16:53:07.575Z,44.44
2019-02-05T16:55:35.956Z,44.48
2019-02-05T16:58:05.190Z,44.12
2019-02-05T17:00:34.904Z,44.03
2019-02-05T17:03:03.463Z,43.98
2019-02-05T17:05:33.575Z,43.59
2019-02-05T17:08:02.200Z,40.67
2019-02-05T17:10:30.855Z,44.13
2019-02-05T17:12:59.418Z,44.27
2019-02-05T17:15:27.792Z,43.66
2019-02-05T17:17:56.694Z,44.30
2019-02-05T17:20:27.116Z,43.85
2019-02-05T17:22:55.675Z,44.02
2019-02-05T17:25:25.862Z,43.48
2019-02-05T17:27:55.088Z,43.78
2019-02-05T17:30:29.116Z,43.92
2019-02-05T17:32:57.761Z,44.18
2019-02-05T17:35:26.949Z,44.51
2019-02-05T17:37:55.396Z,43.81
2019-02-05T17:40:25.706Z,43.48
2019-02-05T17:42:55.120Z,42.72
2019-02-05T17:45:26.046Z,43.21
2019-02-05T17:47:54.452Z,43.75
2019-02-05T17:50:22.837Z,44.14
2019-02-05T17:52:51.207Z,44.39
2019-02-05T17:55:20.721Z,43.28
2019-02-05T17:57:49.106Z,42.38
2019-02-05T18:00:36.101Z,41.47
2019-02-05T18:03:05.430Z,42.25
2019-02-05T18:05:34.900Z,42.29
2019-02-05T18:08:03.384Z,42.61
2019-02-05T18:10:31.775Z,41.96
2019-02-05T18:13:00.155Z,42.80
2019-02-05T18:15:36.495Z,43.06
2019-02-05T18:18:06.407Z,42.78
2019-02-05T18:20:35.274Z,41.91
2019-02-05T18:23:03.862Z,41.65
2019-02-05T18:25:32.297Z,38.89
2019-02-05T18:28:00.721Z,39.26
2019-02-05T18:30:31.984Z,39.42
2019-02-05T18:33:03.719Z,39.29
2019-02-05T18:35:31.018Z,39.53
2019-02-05T18:38:00.352Z,39.18
2019-02-05T18:40:29.332Z,39.46
2019-02-05T18:42:58.182Z,39.69
2019-02-05T18:45:27.470Z,42.31
2019-02-05T18:47:55.867Z,42.22
2019-02-05T18:50:26.939Z,45.20
2019-02-05T18:52:55.581Z,49.58
2019-02-05T18:55:26.559Z,50.82
2019-02-05T18:57:54.939Z,50.28
2019-02-05T19:00:34.910Z,51.30
2019-02-05T19:03:14.433Z,50.21
2019-02-05T19:05:33.803Z,50.97
2019-02-05T19:08:02.246Z,49.88
2019-02-05T19:10:31.749Z,51.12
2019-02-05T19:13:00.366Z,50.83
2019-02-05T19:15:33.887Z,50.90
2019-02-05T19:18:02.535Z,51.38
2019-02-05T19:20:31.866Z,50.44
2019-02-05T19:23:00.877Z,49.77
2019-02-05T19:25:42.950Z,50.27
2019-02-05T19:28:13.198Z,48.76
2019-02-05T19:30:43.405Z,49.67
2019-02-05T19:33:11.775Z,50.21
2019-02-05T19:35:40.165Z,51.56
2019-02-05T19:38:08.612Z,51.83
2019-02-05T19:40:36.994Z,49.53
2019-02-05T19:43:05.620Z,48.80
2019-02-05T19:45:44.783Z,49.33
2019-02-05T19:48:14.790Z,49.97
2019-02-05T19:50:43.251Z,48.73
2019-02-05T19:53:11.629Z,48.87
2019-02-05T19:55:40.012Z,49.34
2019-02-05T19:58:08.460Z,48.32
2019-02-05T20:00:36.842Z,48.70
2019-02-05T20:03:06.584Z,48.77
2019-02-05T20:05:35.162Z,48.71
2019-02-05T20:08:03.604Z,49.12
2019-02-05T20:10:31.994Z,49.03
2019-02-05T20:13:00.365Z,48.99
2019-02-05T20:15:28.745Z,49.09
2019-02-05T20:17:58.061Z,49.08
2019-02-05T20:20:26.586Z,48.50
2019-02-05T20:22:54.968Z,48.83
2019-02-05T20:25:23.335Z,48.49
2019-02-05T20:27:51.725Z,47.78
2019-02-05T20:30:25.419Z,48.12
2019-02-05T20:32:53.799Z,47.56
2019-02-05T20:35:22.182Z,47.68
2019-02-05T20:37:50.846Z,48.08
2019-02-05T20:40:26.705Z,47.67
2019-02-05T20:42:55.037Z,47.88
2019-02-05T20:45:23.420Z,48.17
2019-02-05T20:47:52.038Z,48.27
2019-02-05T20:50:23.576Z,48.15
2019-02-05T20:52:52.084Z,47.82
2019-02-05T20:55:21.907Z,47.75
2019-02-05T20:57:50.373Z,47.57
2019-02-05T21:00:23.825Z,47.78
2019-02-05T21:02:52.366Z,47.97
2019-02-05T21:05:21.148Z,47.31
2019-02-05T21:07:50.071Z,47.71
2019-02-05T21:10:26.733Z,47.52
2019-02-05T21:12:55.120Z,47.65
2019-02-05T21:15:24.034Z,47.42
2019-02-05T21:17:52.419Z,47.38
2019-02-05T21:20:34.005Z,47.13
2019-02-05T21:23:00.037Z,47.63
2019-02-05T21:25:28.787Z,47.11
2019-02-05T21:27:58.316Z,47.40
2019-02-05T21:30:27.296Z,47.47
2019-02-05T21:32:55.698Z,46.93
2019-02-05T21:35:24.074Z,47.33
2019-02-05T21:37:52.463Z,47.52
2019-02-05T21:40:25.102Z,47.42
2019-02-05T21:42:53.851Z,46.88
2019-02-05T21:45:32.243Z,47.21
2019-02-05T21:48:00.742Z,46.48
2019-02-05T21:50:29.080Z,47.33
2019-02-05T21:52:58.868Z,46.42
2019-02-05T21:55:27.880Z,47.03
2019-02-05T21:57:56.798Z,46.86
2019-02-05T22:00:29.743Z,46.73
2019-02-05T22:02:59.196Z,47.35
2019-02-05T22:05:29.060Z,47.36
2019-02-05T22:07:57.543Z,47.16
2019-02-05T22:10:26.180Z,47.00
2019-02-05T22:12:54.763Z,46.89
2019-02-05T22:15:23.607Z,46.90
2019-02-05T22:17:51.979Z,46.88
2019-02-05T22:20:22.853Z,46.86
2019-02-05T22:22:51.223Z,46.44
2019-02-05T22:25:22.402Z,46.12
2019-02-05T22:27:50.763Z,46.35
2019-02-05T22:30:21.194Z,46.26
2019-02-05T22:32:49.814Z,46.22
2019-02-05T22:35:19.851Z,46.13
2019-02-05T22:37:48.671Z,46.32
2019-02-05T22:40:19.405Z,43.67
2019-02-05T22:42:47.855Z,45.72
2019-02-05T22:45:22.316Z,46.11
2019-02-05T22:47:50.926Z,45.98
2019-02-05T22:50:24.512Z,46.15
2019-02-05T22:52:53.051Z,45.67
2019-02-05T22:55:21.459Z,44.39
2019-02-05T22:57:49.833Z,44.39
2019-02-05T23:00:56.280Z,46.59
2019-02-05T23:03:40.479Z,46.78
2019-02-05T23:06:24.021Z,46.61
2019-02-05T23:08:53.434Z,45.59
2019-02-05T23:11:45.788Z,45.85
2019-02-05T23:14:14.229Z,46.58
2019-02-05T23:16:42.617Z,46.06
2019-02-05T23:19:11.058Z,46.35
2019-02-05T23:21:39.786Z,44.82
2019-02-05T23:24:08.327Z,46.62
2019-02-05T23:26:36.711Z,45.70
2019-02-05T23:29:05.090Z,45.86
2019-02-05T23:31:33.468Z,46.15
2019-02-05T23:34:01.846Z,46.36
2019-02-05T23:36:30.233Z,46.35
2019-02-05T23:38:58.602Z,46.46
2019-02-05T23:41:26.980Z,46.22
2019-02-05T23:43:55.359Z,46.82
2019-02-05T23:46:23.747Z,46.96
2019-02-05T23:48:52.128Z,46.70
2019-02-05T23:51:20.511Z,46.50
2019-02-05T23:53:48.975Z,46.58
2019-02-05T23:56:25.485Z,46.15
2019-02-05T23:58:47.466Z,46.17
